Jiujiang, China
Current Conditions -  °F | °C
As of 8:00 PM on Tuesday 21 Oct 2014 (Local Time) from ZHHH Reporting Station
Haze Haze  
Wind Chill: 63°   Ceiling: Unl
Heat Index: 63°   Visibility: 3mi
Dew Point: 59°   Wind: 4mph
Humidity: 88%   Direction: 60°ENE
Pressure: 30.21"   Gusts: NA
Location:  29.73°N, 115.98°E
Report Text: ZHHH 211200Z 06002MPS 5000 BR NSC 17/15 Q1023 NOSIG
Loading
Personal Weather Stations






























Interactive Weather Map
Tropical Storm Tracking
New forecast layout! Learn more

10-Day Weather Forecast

Advertisements
Track Severe Weather on mobile